createdAt,value
2019-04-09T00:01:18.131Z,16.90
2019-04-09T00:03:47.654Z,16.90
2019-04-09T00:06:16.785Z,16.90
2019-04-09T00:08:45.732Z,16.90
2019-04-09T00:11:15.645Z,16.90
2019-04-09T00:13:44.511Z,16.90
2019-04-09T00:16:13.391Z,16.80
2019-04-09T00:18:42.115Z,16.80
2019-04-09T00:21:10.852Z,16.80
2019-04-09T00:23:40.429Z,16.80
2019-04-09T00:26:09.322Z,16.80
2019-04-09T00:28:38.104Z,16.80
2019-04-09T00:31:06.868Z,16.80
2019-04-09T00:33:35.640Z,16.80
2019-04-09T00:36:04.387Z,16.80
2019-04-09T00:38:33.120Z,16.80
2019-04-09T00:41:02.628Z,16.80
2019-04-09T00:43:31.495Z,16.80
2019-04-09T00:46:00.814Z,16.80
2019-04-09T00:48:29.742Z,16.80
2019-04-09T00:50:58.485Z,16.80
2019-04-09T00:53:27.636Z,16.80
2019-04-09T00:55:56.452Z,16.80
2019-04-09T00:58:26.065Z,16.80
2019-04-09T01:00:58.763Z,16.80
2019-04-09T01:03:27.538Z,16.80
2019-04-09T01:05:56.251Z,16.80
2019-04-09T01:08:25.319Z,16.80
2019-04-09T01:10:54.887Z,16.80
2019-04-09T01:13:24.610Z,16.80
2019-04-09T01:15:53.476Z,16.70
2019-04-09T01:18:23.068Z,16.80
2019-04-09T01:20:51.878Z,16.70
2019-04-09T01:23:20.617Z,16.70
2019-04-09T01:25:55.451Z,16.70
2019-04-09T01:28:47.174Z,16.70
2019-04-09T01:31:36.467Z,16.70
2019-04-09T01:34:18.309Z,16.70
2019-04-09T01:37:06.321Z,16.70
2019-04-09T01:39:56.943Z,16.70
2019-04-09T01:42:31.715Z,16.70
2019-04-09T01:45:05.414Z,16.70
2019-04-09T01:47:43.611Z,16.70
2019-04-09T01:50:29.355Z,16.70
2019-04-09T01:53:07.972Z,16.70
2019-04-09T01:56:14.272Z,16.70
2019-04-09T01:58:50.221Z,16.70
2019-04-09T02:01:38.023Z,16.60
2019-04-09T02:04:26.993Z,16.60
2019-04-09T02:07:14.955Z,16.60
2019-04-09T02:10:12.216Z,16.60
2019-04-09T02:12:46.912Z,16.60
2019-04-09T02:15:27.316Z,16.60
2019-04-09T02:18:21.994Z,16.60
2019-04-09T02:21:09.048Z,16.60
2019-04-09T02:24:03.073Z,16.60
2019-04-09T02:26:49.512Z,16.60
2019-04-09T02:29:31.869Z,16.60
2019-04-09T02:32:32.482Z,16.60
2019-04-09T02:35:14.709Z,16.60
2019-04-09T02:37:54.886Z,16.60
2019-04-09T02:40:32.640Z,16.60
2019-04-09T02:43:27.455Z,16.60
2019-04-09T02:46:34.302Z,16.60
2019-04-09T02:49:14.751Z,16.60
2019-04-09T02:52:00.963Z,16.60
2019-04-09T02:54:51.990Z,16.60
2019-04-09T02:57:50.258Z,16.50
2019-04-09T03:00:41.931Z,16.50
2019-04-09T03:03:21.173Z,16.50
2019-04-09T03:06:03.323Z,16.50
2019-04-09T03:08:54.262Z,16.50
2019-04-09T03:11:48.260Z,16.50
2019-04-09T03:14:40.998Z,16.50
2019-04-09T03:17:35.731Z,16.50
2019-04-09T03:20:28.193Z,16.50
2019-04-09T03:23:25.045Z,16.50
2019-04-09T03:26:11.915Z,16.50
2019-04-09T03:28:58.206Z,16.50
2019-04-09T03:31:43.297Z,16.50
2019-04-09T03:34:23.660Z,16.50
2019-04-09T03:37:13.039Z,16.50
2019-04-09T03:40:13.316Z,16.50
2019-04-09T03:43:07.911Z,16.50
2019-04-09T03:45:57.696Z,16.50
2019-04-09T03:48:44.005Z,16.50
2019-04-09T03:51:21.317Z,16.50
2019-04-09T03:53:55.563Z,16.50
2019-04-09T03:56:46.402Z,16.50
2019-04-09T03:59:37.641Z,16.50
2019-04-09T04:02:31.346Z,16.40
2019-04-09T04:05:22.334Z,16.40
2019-04-09T04:08:08.899Z,16.40
2019-04-09T04:11:09.151Z,16.40
2019-04-09T04:14:00.180Z,16.40
2019-04-09T04:16:57.222Z,16.40
2019-04-09T04:19:39.797Z,16.40
2019-04-09T04:22:33.453Z,16.40
2019-04-09T04:25:20.045Z,16.40
2019-04-09T04:28:29.285Z,16.40
2019-04-09T04:31:11.200Z,16.40
2019-04-09T04:34:02.104Z,16.40
2019-04-09T04:36:55.906Z,16.40
2019-04-09T04:39:39.253Z,16.40
2019-04-09T04:42:17.279Z,16.40
2019-04-09T04:44:53.292Z,16.40
2019-04-09T04:47:43.986Z,16.40
2019-04-09T04:50:37.629Z,16.40
2019-04-09T04:53:24.451Z,16.40
2019-04-09T04:56:27.873Z,16.40
2019-04-09T04:59:24.700Z,16.40
2019-04-09T05:02:01.087Z,16.40
2019-04-09T05:04:58.237Z,16.30
2019-04-09T05:07:51.805Z,16.30
2019-04-09T05:10:38.276Z,16.30
2019-04-09T05:13:24.815Z,16.30
2019-04-09T05:16:24.679Z,16.30
2019-04-09T05:19:13.941Z,16.30
2019-04-09T05:21:59.470Z,16.30
2019-04-09T05:24:47.005Z,16.30
2019-04-09T05:27:35.158Z,16.30
2019-04-09T05:30:35.513Z,16.30
2019-04-09T05:33:22.774Z,16.30
2019-04-09T05:36:11.887Z,16.30
2019-04-09T05:39:03.775Z,16.30
2019-04-09T05:41:50.832Z,16.30
2019-04-09T05:44:37.314Z,16.30
2019-04-09T05:47:22.108Z,16.30
2019-04-09T05:49:59.173Z,16.30
2019-04-09T05:52:33.298Z,16.30
2019-04-09T05:55:16.804Z,16.30
2019-04-09T05:58:13.086Z,16.30
2019-04-09T06:00:54.763Z,16.30
2019-04-09T06:03:30.927Z,16.30
2019-04-09T06:06:12.065Z,16.30
2019-04-09T06:08:59.023Z,16.30
2019-04-09T06:11:27.964Z,16.30
2019-04-09T06:13:57.900Z,16.30
2019-04-09T06:16:27.292Z,16.30
2019-04-09T06:18:56.666Z,16.30
2019-04-09T06:21:28.027Z,16.30
2019-04-09T06:23:56.373Z,16.30
2019-04-09T06:26:25.167Z,16.30
2019-04-09T06:28:54.716Z,16.30
2019-04-09T06:31:24.414Z,16.30
2019-04-09T06:34:01.355Z,16.30
2019-04-09T06:36:45.979Z,16.30
2019-04-09T06:39:43.106Z,16.30
2019-04-09T06:42:19.753Z,16.30
2019-04-09T06:45:06.002Z,16.30
2019-04-09T06:47:53.039Z,16.30
2019-04-09T06:50:59.176Z,16.30
2019-04-09T06:53:45.815Z,16.30
2019-04-09T06:56:37.857Z,16.40
2019-04-09T06:59:39.398Z,16.40
2019-04-09T07:02:26.535Z,16.40
2019-04-09T07:05:09.241Z,16.40
2019-04-09T07:07:58.167Z,16.40
2019-04-09T07:10:50.884Z,16.40
2019-04-09T07:13:42.058Z,16.40
2019-04-09T07:16:21.290Z,16.40
2019-04-09T07:19:03.680Z,16.40
2019-04-09T07:21:56.978Z,16.50
2019-04-09T07:24:52.088Z,16.50
2019-04-09T07:27:33.215Z,16.50
2019-04-09T07:30:26.450Z,16.50
2019-04-09T07:33:18.528Z,16.60
2019-04-09T07:35:56.947Z,16.70
2019-04-09T07:38:45.270Z,16.70
2019-04-09T07:41:29.556Z,16.70
2019-04-09T07:44:16.142Z,16.80
2019-04-09T07:47:06.769Z,16.80
2019-04-09T07:50:03.984Z,16.80
2019-04-09T07:53:01.411Z,16.90
2019-04-09T07:55:52.057Z,16.90
2019-04-09T07:58:28.753Z,16.90
2019-04-09T08:01:06.386Z,17.00
2019-04-09T08:04:04.423Z,17.00
2019-04-09T08:06:41.806Z,17.00
2019-04-09T08:09:41.730Z,17.00
2019-04-09T08:12:24.994Z,17.00
2019-04-09T08:15:21.849Z,17.10
2019-04-09T08:18:18.858Z,17.10
2019-04-09T08:20:49.961Z,17.10
2019-04-09T08:23:28.543Z,17.10
2019-04-09T08:26:15.104Z,17.10
2019-04-09T08:28:56.597Z,17.10
2019-04-09T08:31:56.181Z,17.10
2019-04-09T08:34:43.902Z,17.10
2019-04-09T08:37:21.980Z,17.10
2019-04-09T08:40:12.049Z,17.10
2019-04-09T08:42:48.891Z,17.20
2019-04-09T08:45:35.521Z,17.20
2019-04-09T08:48:26.402Z,17.20
2019-04-09T08:51:07.618Z,17.20
2019-04-09T08:53:54.190Z,17.30
2019-04-09T08:56:45.992Z,17.30
2019-04-09T08:59:30.527Z,17.30
2019-04-09T09:02:30.266Z,17.30
2019-04-09T09:05:06.692Z,17.30
2019-04-09T09:07:50.312Z,17.40
2019-04-09T09:10:34.526Z,17.40
2019-04-09T09:13:40.906Z,17.40
2019-04-09T09:16:36.843Z,17.40
2019-04-09T09:19:42.622Z,17.40
2019-04-09T09:22:40.131Z,17.50
2019-04-09T09:25:22.680Z,17.50
2019-04-09T09:28:05.729Z,17.50
2019-04-09T09:31:08.375Z,17.50
2019-04-09T09:33:56.327Z,17.60
2019-04-09T09:36:43.705Z,17.60
2019-04-09T09:39:41.186Z,17.60
2019-04-09T09:42:26.094Z,17.60
2019-04-09T09:45:12.472Z,17.60
2019-04-09T09:48:09.170Z,17.60
2019-04-09T09:50:58.027Z,17.60
2019-04-09T09:53:53.333Z,17.70
2019-04-09T09:56:34.237Z,17.70
2019-04-09T09:59:22.485Z,17.70
2019-04-09T10:02:12.087Z,17.70
2019-04-09T10:04:56.488Z,17.70
2019-04-09T10:07:50.828Z,17.70
2019-04-09T10:10:19.224Z,17.70
2019-04-09T10:12:59.517Z,17.70
2019-04-09T10:15:39.839Z,17.70
2019-04-09T10:18:14.910Z,17.80
2019-04-09T10:20:58.926Z,17.80
2019-04-09T10:23:37.255Z,17.80
2019-04-09T10:26:19.384Z,17.80
2019-04-09T10:29:15.899Z,17.80
2019-04-09T10:32:00.766Z,17.80
2019-04-09T10:34:39.776Z,17.80
2019-04-09T10:37:26.164Z,17.80
2019-04-09T10:40:19.637Z,17.80
2019-04-09T10:43:02.124Z,17.80
2019-04-09T10:45:54.448Z,17.80
2019-04-09T10:48:30.837Z,17.80
2019-04-09T10:51:19.555Z,17.90
2019-04-09T10:54:10.242Z,17.80
2019-04-09T10:56:58.147Z,17.80
2019-04-09T10:59:33.827Z,17.90
2019-04-09T11:02:24.438Z,17.80
2019-04-09T11:05:24.946Z,17.90
2019-04-09T11:08:06.964Z,17.90
2019-04-09T11:11:02.638Z,17.90
2019-04-09T11:13:42.822Z,17.90
2019-04-09T11:16:42.322Z,17.90
2019-04-09T11:19:33.137Z,17.90
2019-04-09T11:22:10.094Z,17.90
2019-04-09T11:25:02.626Z,17.90
2019-04-09T11:27:42.406Z,17.90
2019-04-09T11:30:36.475Z,17.90
2019-04-09T11:33:10.970Z,17.90
2019-04-09T11:35:54.997Z,17.90
2019-04-09T11:38:41.628Z,17.90
2019-04-09T11:41:15.580Z,17.90
2019-04-09T11:43:56.363Z,17.90
2019-04-09T11:46:38.825Z,17.80
2019-04-09T11:49:25.236Z,17.90
2019-04-09T11:52:01.787Z,17.90
2019-04-09T11:54:52.483Z,17.90
2019-04-09T11:57:41.426Z,17.90
2019-04-09T12:00:35.902Z,17.90
2019-04-09T12:03:23.238Z,17.90
2019-04-09T12:06:11.204Z,17.90
2019-04-09T12:08:45.243Z,17.90
2019-04-09T12:11:22.962Z,17.90
2019-04-09T12:14:15.110Z,17.90
2019-04-09T12:16:54.189Z,17.90
2019-04-09T12:19:44.462Z,17.90
2019-04-09T12:22:41.780Z,17.90
2019-04-09T12:25:24.045Z,17.80
2019-04-09T12:28:02.611Z,17.80
2019-04-09T12:30:59.726Z,17.80
2019-04-09T12:33:46.053Z,17.80
2019-04-09T12:36:26.908Z,17.80
2019-04-09T12:39:13.473Z,17.80
2019-04-09T12:42:14.358Z,17.80
2019-04-09T12:45:14.176Z,17.80
2019-04-09T12:48:00.802Z,17.80
2019-04-09T12:50:49.402Z,17.80
2019-04-09T12:53:52.923Z,17.80
2019-04-09T12:56:43.322Z,17.80
2019-04-09T12:59:21.827Z,17.80
2019-04-09T13:02:08.966Z,17.80
2019-04-09T13:04:56.915Z,17.80
2019-04-09T13:07:45.135Z,17.80
2019-04-09T13:10:31.623Z,17.80
2019-04-09T13:13:22.560Z,17.70
2019-04-09T13:16:10.553Z,17.70
2019-04-09T13:18:57.343Z,17.70
2019-04-09T13:21:31.935Z,17.70
2019-04-09T13:24:11.383Z,17.70
2019-04-09T13:26:58.408Z,17.70
2019-04-09T13:29:43.112Z,17.70
2019-04-09T13:32:43.032Z,17.70
2019-04-09T13:35:19.865Z,17.70
2019-04-09T13:38:20.731Z,17.70
2019-04-09T13:41:24.230Z,17.70
2019-04-09T13:44:27.219Z,17.70
2019-04-09T13:47:11.096Z,17.70
2019-04-09T13:49:58.587Z,17.70
2019-04-09T13:52:36.688Z,17.70
2019-04-09T13:55:08.211Z,17.70
2019-04-09T13:57:38.072Z,17.70
2019-04-09T14:00:09.390Z,17.70
2019-04-09T14:02:56.026Z,17.70
2019-04-09T14:05:22.734Z,17.70
2019-04-09T14:07:51.532Z,17.70
2019-04-09T14:10:20.765Z,17.70
2019-04-09T14:12:49.710Z,17.70
2019-04-09T14:15:18.491Z,17.70
2019-04-09T14:17:49.373Z,17.70
2019-04-09T14:20:20.219Z,17.70
2019-04-09T14:22:48.999Z,17.70
2019-04-09T14:25:19.138Z,17.70
2019-04-09T14:27:49.004Z,17.70
2019-04-09T14:30:18.045Z,17.70
2019-04-09T14:32:58.693Z,17.60
2019-04-09T14:35:17.415Z,17.70
2019-04-09T14:37:46.991Z,17.70
2019-04-09T14:40:15.884Z,17.70
2019-04-09T14:42:44.707Z,17.70
2019-04-09T14:45:13.540Z,17.60
2019-04-09T14:47:44.132Z,17.60
2019-04-09T14:50:13.647Z,17.60
2019-04-09T14:52:49.895Z,17.70
2019-04-09T14:55:15.020Z,17.60
2019-04-09T14:57:43.870Z,17.70
2019-04-09T15:00:18.507Z,17.70
2019-04-09T15:02:47.361Z,17.70
2019-04-09T15:05:16.330Z,17.70
2019-04-09T15:07:46.031Z,17.70
2019-04-09T15:10:15.564Z,17.70
2019-04-09T15:12:44.443Z,17.70
2019-04-09T15:15:13.648Z,17.70
2019-04-09T15:17:42.402Z,17.80
2019-04-09T15:20:11.340Z,17.80
2019-04-09T15:22:40.963Z,17.80
2019-04-09T15:25:09.832Z,17.80
2019-04-09T15:27:38.597Z,17.80
2019-04-09T15:30:08.137Z,17.80
2019-04-09T15:32:36.975Z,17.80
2019-04-09T15:35:05.781Z,17.80
2019-04-09T15:37:35.388Z,17.80
2019-04-09T15:40:04.766Z,17.80
2019-04-09T15:42:34.255Z,17.80
2019-04-09T15:45:03.082Z,17.80
2019-04-09T15:47:31.883Z,17.80
2019-04-09T15:50:01.022Z,17.80
2019-04-09T15:52:30.966Z,17.80
2019-04-09T15:54:59.814Z,17.80
2019-04-09T15:57:28.585Z,17.80
2019-04-09T15:59:57.433Z,17.80
2019-04-09T16:02:26.719Z,17.80
2019-04-09T16:04:56.640Z,17.80
2019-04-09T16:07:26.489Z,17.80
2019-04-09T16:09:56.165Z,17.80
2019-04-09T16:12:24.914Z,17.80
2019-04-09T16:14:54.219Z,17.80
2019-04-09T16:17:23.553Z,17.80
2019-04-09T16:19:53.065Z,17.80
2019-04-09T16:22:23.013Z,17.80
2019-04-09T16:24:52.974Z,17.80
2019-04-09T16:27:21.986Z,17.80
2019-04-09T16:29:50.829Z,17.80
2019-04-09T16:32:19.724Z,17.80
2019-04-09T16:34:48.526Z,17.80
2019-04-09T16:37:17.820Z,17.80
2019-04-09T16:39:46.628Z,17.80
2019-04-09T16:42:27.351Z,17.80
2019-04-09T16:44:55.267Z,17.80
2019-04-09T16:47:16.366Z,17.80
2019-04-09T16:49:45.734Z,17.80
2019-04-09T16:52:14.567Z,17.80
2019-04-09T16:54:43.335Z,17.80
2019-04-09T16:57:12.964Z,17.80
2019-04-09T16:59:42.096Z,17.80
2019-04-09T17:02:11.117Z,17.80
2019-04-09T17:04:40.933Z,17.80
2019-04-09T17:07:09.832Z,17.80
2019-04-09T17:09:40.174Z,17.80
2019-04-09T17:12:11.742Z,17.80
2019-04-09T17:14:39.889Z,17.80
2019-04-09T17:17:09.068Z,17.70
2019-04-09T17:19:37.954Z,17.70
2019-04-09T17:24:20.966Z,17.70
2019-04-09T17:27:02.452Z,17.70
2019-04-09T17:29:43.842Z,17.70
2019-04-09T17:32:25.556Z,17.70
2019-04-09T17:35:06.718Z,17.70
2019-04-09T17:37:48.139Z,17.70
2019-04-09T17:40:29.923Z,17.70
2019-04-09T17:43:11.344Z,17.70
2019-04-09T17:45:53.193Z,17.70
2019-04-09T17:48:34.166Z,17.70
2019-04-09T17:51:15.160Z,17.70
2019-04-09T17:53:56.428Z,17.70
2019-04-09T17:56:38.373Z,17.60
2019-04-09T17:59:19.815Z,17.70
2019-04-09T18:02:02.217Z,17.60
2019-04-09T18:04:48.620Z,17.70
2019-04-09T18:07:26.697Z,17.60
2019-04-09T18:10:08.312Z,17.60
2019-04-09T18:12:49.875Z,17.60
2019-04-09T18:15:31.622Z,17.60
2019-04-09T18:18:13.730Z,17.60
2019-04-09T18:20:54.913Z,17.60
2019-04-09T18:23:36.484Z,17.60
2019-04-09T18:26:18.837Z,17.60
2019-04-09T18:28:59.696Z,17.60
2019-04-09T18:31:41.354Z,17.60
2019-04-09T18:34:22.974Z,17.60
2019-04-09T18:37:04.121Z,17.60
2019-04-09T18:39:44.698Z,17.60
2019-04-09T18:42:26.120Z,17.60
2019-04-09T18:45:08.000Z,17.60
2019-04-09T18:47:49.134Z,17.50
2019-04-09T18:50:30.844Z,17.50
2019-04-09T18:53:12.305Z,17.50
2019-04-09T18:55:53.228Z,17.50
2019-04-09T18:58:34.569Z,17.50
2019-04-09T19:01:17.108Z,17.50
2019-04-09T19:04:06.908Z,17.50
2019-04-09T19:06:40.855Z,17.50
2019-04-09T19:09:22.144Z,17.50
2019-04-09T19:12:02.964Z,17.50
2019-04-09T19:14:44.156Z,17.50
2019-04-09T19:17:25.283Z,17.50
2019-04-09T19:20:07.683Z,17.50
2019-04-09T19:22:49.497Z,17.50
2019-04-09T19:25:31.169Z,17.50
2019-04-09T19:28:13.027Z,17.50
2019-04-09T19:30:54.141Z,17.50
2019-04-09T19:33:36.074Z,17.50
2019-04-09T19:36:16.978Z,17.50
2019-04-09T19:38:57.723Z,17.50
2019-04-09T19:41:38.366Z,17.50
2019-04-09T19:44:19.268Z,17.50
2019-04-09T19:47:00.795Z,17.50
2019-04-09T19:49:43.359Z,17.40
2019-04-09T19:52:25.140Z,17.40
2019-04-09T19:55:06.263Z,17.50
2019-04-09T19:57:48.267Z,17.50
2019-04-09T20:00:29.326Z,17.40
2019-04-09T20:03:10.034Z,17.40
2019-04-09T20:05:50.917Z,17.40
2019-04-09T20:08:33.366Z,17.40
2019-04-09T20:11:15.110Z,17.40
2019-04-09T20:13:56.500Z,17.40
2019-04-09T20:16:37.945Z,17.40
2019-04-09T20:19:20.469Z,17.40
2019-04-09T20:22:03.147Z,17.40
2019-04-09T20:24:44.936Z,17.40
2019-04-09T20:27:26.242Z,17.40
2019-04-09T20:30:07.831Z,17.40
2019-04-09T20:32:48.749Z,17.40
2019-04-09T20:35:40.398Z,17.40
2019-04-09T20:38:12.642Z,17.40
2019-04-09T20:40:54.797Z,17.40
2019-04-09T20:43:36.520Z,17.40
2019-04-09T20:46:17.832Z,17.40
2019-04-09T20:48:59.728Z,17.40
2019-04-09T20:51:41.077Z,17.40
2019-04-09T20:57:31.567Z,17.40
2019-04-09T21:00:32.334Z,17.40
2019-04-09T21:03:33.363Z,17.40
2019-04-09T21:06:18.233Z,17.40
2019-04-09T21:09:00.019Z,17.40
2019-04-09T21:11:40.676Z,17.40
2019-04-09T21:14:22.265Z,17.40
2019-04-09T21:17:04.924Z,17.40
2019-04-09T21:19:46.279Z,17.40
2019-04-09T21:22:26.975Z,17.40
2019-04-09T21:25:08.568Z,17.40
2019-04-09T21:27:50.003Z,17.30
2019-04-09T21:30:30.881Z,17.30
2019-04-09T21:33:11.604Z,17.30
2019-04-09T21:36:03.918Z,17.30
2019-04-09T21:38:43.078Z,17.30
2019-04-09T21:41:31.365Z,17.30
2019-04-09T21:44:20.594Z,17.30
2019-04-09T21:47:09.653Z,17.30
2019-04-09T21:49:58.234Z,17.30
2019-04-09T21:52:48.750Z,17.30
2019-04-09T21:55:30.677Z,17.30
2019-04-09T21:58:12.166Z,17.30
2019-04-09T22:00:53.785Z,17.30
2019-04-09T22:03:34.659Z,17.30
2019-04-09T22:06:23.568Z,17.30
2019-04-09T22:08:58.647Z,17.30
2019-04-09T22:11:40.209Z,17.30
2019-04-09T22:14:21.365Z,17.30
2019-04-09T22:17:01.915Z,17.30
2019-04-09T22:19:42.913Z,17.30
2019-04-09T22:22:25.185Z,17.30
2019-04-09T22:25:05.849Z,17.30
2019-04-09T22:27:47.871Z,17.30
2019-04-09T22:30:28.882Z,17.30
2019-04-09T22:33:13.662Z,17.30
2019-04-09T22:35:53.519Z,17.30
2019-04-09T22:38:35.523Z,17.30
2019-04-09T22:41:17.315Z,17.30
2019-04-09T22:44:00.154Z,17.30
2019-04-09T22:46:41.124Z,17.30
2019-04-09T22:49:21.884Z,17.30
2019-04-09T22:52:03.590Z,17.30
2019-04-09T22:54:45.427Z,17.30
2019-04-09T22:57:26.208Z,17.30
2019-04-09T23:00:14.266Z,17.30
2019-04-09T23:06:41.797Z,17.30
2019-04-09T23:09:34.004Z,17.30
2019-04-09T23:18:35.492Z,17.30
2019-04-09T23:21:17.120Z,17.20
2019-04-09T23:23:59.525Z,17.30
2019-04-09T23:29:49.696Z,17.20
2019-04-09T23:32:31.772Z,17.20
2019-04-09T23:35:13.386Z,17.20
2019-04-09T23:37:54.674Z,17.20
2019-04-09T23:40:36.108Z,17.20
2019-04-09T23:43:17.494Z,17.20
2019-04-09T23:46:01.277Z,17.20
2019-04-09T23:48:42.525Z,17.20
2019-04-09T23:51:23.992Z,17.20
2019-04-09T23:54:05.547Z,17.20
2019-04-09T23:56:46.341Z,17.20
2019-04-09T23:59:26.990Z,17.20
